Time;durP1;ratioP1;P1;durP2;ratioP2;P2;SDS_P1;SDS_P2;PMS_P1;PMS_P2;Temp;Humidity;BMP_temperature;BMP_pressure;BME280_temperature;BME280_humidity;BME280_pressure;Samples;Min_cycle;Max_cycle;Signal;HPM_P1;HPM_P2
2023/02/14 00:02:06;;;;;;;372.73;12.32;;;;;;;0.23;100.00;100452.06;15281824;19;20843;-80
2023/02/14 00:07:31;;;;;;;478.73;12.95;;;;;;;0.21;100.00;100467.13;15293999;19;20024;-80
2023/02/14 00:13:02;;;;;;;429.58;12.13;;;;;;;0.16;100.00;100469.91;15302610;19;20088;-80
2023/02/14 00:19:02;;;;;;;324.52;11.98;;;;;;;0.05;100.00;100464.91;15339720;19;20007;-81
2023/02/14 00:24:17;;;;;;;330.90;13.93;;;;;;;-0.02;100.00;100456.28;15301809;19;20014;-81
2023/02/14 00:29:43;;;;;;;206.68;10.05;;;;;;;-0.11;100.00;100461.84;15296944;19;20090;-80
2023/02/14 00:35:11;;;;;;;48.88;7.68;;;;;;;-0.22;100.00;100442.72;15298274;19;20015;-80
2023/02/14 00:40:38;;;;;;;14.32;6.10;;;;;;;-0.35;100.00;100444.81;15292617;19;20031;-80
2023/02/14 00:46:03;;;;;;;6.80;6.20;;;;;;;-0.39;100.00;100441.38;15297173;19;20006;-80
2023/02/14 00:51:31;;;;;;;6.47;5.88;;;;;;;-0.49;100.00;100434.59;15293164;19;20018;-80
2023/02/14 00:56:55;;;;;;;6.72;6.13;;;;;;;-0.54;100.00;100431.22;15294170;19;20018;-80
2023/02/14 01:02:20;;;;;;;6.43;5.82;;;;;;;-0.60;100.00;100441.97;15289275;19;20045;-80
2023/02/14 01:07:47;;;;;;;6.75;6.15;;;;;;;-0.65;100.00;100434.16;15293572;19;20035;-80
2023/02/14 01:13:19;;;;;;;6.90;6.30;;;;;;;-0.77;100.00;100414.19;15282194;19;20014;-80
2023/02/14 01:18:45;;;;;;;7.13;6.53;;;;;;;-0.87;100.00;100415.28;15292569;19;20036;-79
2023/02/14 01:24:15;;;;;;;7.05;6.45;;;;;;;-0.96;100.00;100403.19;15298130;19;20031;-80
2023/02/14 01:29:40;;;;;;;7.88;7.07;;;;;;;-1.04;100.00;100407.78;15292729;19;20029;-80
2023/02/14 01:35:04;;;;;;;7.68;6.78;;;;;;;-1.13;100.00;100408.91;15294692;19;20068;-80
2023/02/14 01:40:31;;;;;;;37.28;6.93;;;;;;;-1.26;100.00;100395.09;15290507;19;20537;-80
2023/02/14 01:45:56;;;;;;;8.32;6.65;;;;;;;-1.32;100.00;100395.25;15292388;19;20138;-80
2023/02/14 01:51:24;;;;;;;7.07;6.38;;;;;;;-1.40;100.00;100391.00;15290268;19;20036;-79
2023/02/14 01:56:56;;;;;;;23.30;7.00;;;;;;;-1.42;100.00;100394.59;15293630;19;20018;-79
2023/02/14 02:02:22;;;;;;;8.25;7.05;;;;;;;-1.49;100.00;100387.72;15288682;19;20010;-78
2023/02/14 02:07:48;;;;;;;11.95;7.32;;;;;;;-1.52;100.00;100393.09;15267110;19;20096;-79
2023/02/14 02:13:21;;;;;;;27.15;7.72;;;;;;;-1.53;100.00;100386.94;15289416;19;20085;-79
2023/02/14 02:19:02;;;;;;;54.72;8.32;;;;;;;-1.55;100.00;100391.38;15292833;19;20027;-80
2023/02/14 02:24:43;;;;;;;135.02;8.40;;;;;;;-1.57;100.00;100396.69;15296423;19;20018;-80
2023/02/14 02:30:20;;;;;;;137.35;8.85;;;;;;;-1.59;100.00;100393.22;15316896;19;20021;-80
2023/02/14 02:36:18;;;;;;;76.32;7.93;;;;;;;-1.60;100.00;100391.50;15316297;19;20014;-80
2023/02/14 02:41:52;;;;;;;220.95;9.32;;;;;;;-1.62;100.00;100387.13;15279717;19;20112;-80
2023/02/14 02:47:26;;;;;;;269.83;10.15;;;;;;;-1.61;100.00;100395.03;15279373;19;20529;-80
2023/02/14 02:53:07;;;;;;;439.90;13.60;;;;;;;-1.66;100.00;100402.19;15284955;19;20018;-81
2023/02/14 02:58:38;;;;;;;371.58;13.18;;;;;;;-1.74;100.00;100399.72;15283183;19;20014;-80
2023/02/14 03:10:06;;;;;;;102.05;11.40;;;;;;;-1.67;100.00;100411.03;15285520;19;20482;-80
2023/02/14 03:15:53;;;;;;;182.13;12.30;;;;;;;-1.62;100.00;100414.44;15286312;19;20014;-79
2023/02/14 03:21:31;;;;;;;398.08;14.02;;;;;;;-1.60;100.00;100412.66;15284136;19;20019;-80
2023/02/14 03:27:06;;;;;;;193.57;11.70;;;;;;;-1.60;100.00;100422.34;15289042;19;20019;-79
2023/02/14 03:32:42;;;;;;;95.82;10.80;;;;;;;-1.60;100.00;100423.22;15292398;19;20003;-80
2023/02/14 03:38:13;;;;;;;298.65;11.48;;;;;;;-1.60;100.00;100423.22;15289704;19;20019;-79
2023/02/14 03:43:44;;;;;;;284.83;11.65;;;;;;;-1.59;100.00;100417.00;15298081;19;20391;-79
2023/02/14 03:49:14;;;;;;;168.10;9.55;;;;;;;-1.64;100.00;100410.97;15289590;19;20339;-79
2023/02/14 03:54:42;;;;;;;161.38;9.13;;;;;;;-1.67;100.00;100407.53;15290221;19;20022;-80
2023/02/14 04:00:11;;;;;;;363.88;10.82;;;;;;;-1.74;100.00;100410.28;15293912;19;20375;-81
2023/02/14 04:05:37;;;;;;;220.93;8.48;;;;;;;-1.79;100.00;100408.66;15299160;19;20745;-81
2023/02/14 04:11:03;;;;;;;107.72;6.72;;;;;;;-1.87;100.00;100401.78;15293691;19;20333;-80
2023/02/14 04:19:21;;;;;;;28.10;6.40;;;;;;;-1.87;100.00;100388.56;15299215;19;20050;-79
2023/02/14 04:22:16;;;;;;;20.05;7.20;;;;;;;-1.98;100.00;100382.66;15325566;19;19999;-79
2023/02/14 04:27:40;;;;;;;7.25;6.55;;;;;;;-2.00;100.00;100386.25;15302878;19;20396;-81
2023/02/14 04:33:09;;;;;;;11.70;7.22;;;;;;;-1.95;100.00;100387.88;15297654;19;20106;-81
2023/02/14 04:38:33;;;;;;;62.90;8.98;;;;;;;-1.90;100.00;100375.41;15292262;19;20057;-80
2023/02/14 04:43:58;;;;;;;18.60;9.05;;;;;;;-1.84;100.00;100381.47;15300649;19;20029;-81
2023/02/14 04:49:26;;;;;;;31.55;8.40;;;;;;;-1.83;100.00;100381.44;15302153;19;20007;-80
2023/02/14 04:54:51;;;;;;;22.92;7.63;;;;;;;-1.84;100.00;100377.06;15300472;19;20018;-81
2023/02/14 05:00:17;;;;;;;87.85;8.35;;;;;;;-1.85;100.00;100372.66;15296488;19;20032;-79
2023/02/14 05:05:45;;;;;;;46.25;6.95;;;;;;;-1.94;100.00;100363.16;15303267;19;20502;-79
2023/02/14 05:11:09;;;;;;;29.08;7.70;;;;;;;-1.99;100.00;100357.13;15316912;19;20023;-80
2023/02/14 05:16:34;;;;;;;48.97;8.43;;;;;;;-2.04;100.00;100353.72;15330776;19;20415;-79
2023/02/14 05:22:01;;;;;;;437.83;14.15;;;;;;;-2.10;100.00;100353.84;15287797;19;20014;-78
2023/02/14 05:27:26;;;;;;;267.60;12.65;;;;;;;-2.19;100.00;100358.44;15297603;19;20010;-80
2023/02/14 05:32:50;;;;;;;57.50;9.68;;;;;;;-2.15;100.00;100355.72;15296848;19;20409;-80
2023/02/14 05:38:18;;;;;;;37.75;10.50;;;;;;;-2.27;100.00;100349.78;15294502;19;20007;-78
2023/02/14 05:43:43;;;;;;;10.50;9.00;;;;;;;-2.21;100.00;100362.00;15294254;19;20025;-79
2023/02/14 05:49:08;;;;;;;10.55;8.80;;;;;;;-2.18;100.00;100360.19;15294799;19;20018;-80
2023/02/14 05:54:35;;;;;;;10.48;8.90;;;;;;;-2.15;100.00;100364.53;15301000;19;20014;-80
2023/02/14 06:00:01;;;;;;;10.07;8.20;;;;;;;-2.15;100.00;100363.63;15292092;19;20604;-81
2023/02/14 06:05:26;;;;;;;10.15;8.52;;;;;;;-2.13;100.00;100365.38;15294167;19;20763;-79
2023/02/14 06:10:54;;;;;;;8.93;7.80;;;;;;;-2.12;100.00;100368.88;15287628;19;20027;-80
2023/02/14 06:16:19;;;;;;;8.75;7.70;;;;;;;-2.13;100.00;100364.47;15292026;19;20035;-82
2023/02/14 06:21:44;;;;;;;9.18;7.75;;;;;;;-2.11;100.00;100381.16;15288560;19;20043;-83
2023/02/14 06:27:11;;;;;;;9.32;7.53;;;;;;;-2.12;100.00;100374.16;15297359;19;20025;-80
2023/02/14 06:32:36;;;;;;;9.15;7.88;;;;;;;-2.15;100.00;100375.09;15291633;19;20007;-79
2023/02/14 06:38:01;;;;;;;8.60;7.65;;;;;;;-2.14;100.00;100374.19;15292259;19;20081;-77
2023/02/14 06:43:28;;;;;;;10.50;8.13;;;;;;;-2.13;100.00;100380.31;15297390;19;20018;-80
2023/02/14 06:48:53;;;;;;;9.77;7.93;;;;;;;-2.13;100.00;100383.84;15293733;19;20025;-79
2023/02/14 06:54:18;;;;;;;8.40;7.50;;;;;;;-2.10;100.00;100388.19;15290941;19;20011;-79
2023/02/14 06:59:46;;;;;;;8.25;7.28;;;;;;;-2.08;100.00;100389.88;15285619;19;20779;-78
2023/02/14 07:05:11;;;;;;;8.13;7.32;;;;;;;-2.06;100.00;100377.53;15282487;19;20015;-77
2023/02/14 07:10:35;;;;;;;8.93;7.90;;;;;;;-2.02;100.00;100370.41;15290452;19;20039;-76
2023/02/14 07:16:04;;;;;;;9.75;8.57;;;;;;;-1.97;100.00;100371.19;15295529;19;20394;-75
2023/02/14 07:21:28;;;;;;;12.73;9.45;;;;;;;-1.95;100.00;100364.09;15287988;19;20051;-75
2023/02/14 07:26:53;;;;;;;11.55;9.82;;;;;;;-1.90;100.00;100356.06;15294354;19;20002;-78
2023/02/14 07:32:22;;;;;;;12.10;10.18;;;;;;;-1.85;100.00;100354.16;15284528;19;20014;-76
2023/02/14 07:37:47;;;;;;;11.02;9.60;;;;;;;-1.79;100.00;100351.41;15289169;19;20027;-75
2023/02/14 07:43:11;;;;;;;12.15;9.90;;;;;;;-1.71;100.00;100354.72;15307362;19;20088;-78
2023/02/14 07:48:40;;;;;;;11.20;9.35;;;;;;;-1.62;100.00;100365.97;15307977;19;20018;-79
2023/02/14 07:54:04;;;;;;;9.98;8.90;;;;;;;-1.55;100.00;100373.75;15355450;19;20011;-77
2023/02/14 07:59:36;;;;;;;10.02;8.98;;;;;;;-1.46;100.00;100366.50;15289443;19;20405;-77
2023/02/14 08:05:04;;;;;;;10.98;9.43;;;;;;;-1.35;100.00;100363.59;15286929;19;20504;-78
2023/02/14 08:10:28;;;;;;;11.07;9.23;;;;;;;-1.27;100.00;100367.78;15289665;19;20022;-80
2023/02/14 08:16:10;;;;;;;12.70;9.85;;;;;;;-1.16;100.00;100374.59;15297177;19;20624;-77
2023/02/14 08:21:38;;;;;;;11.25;9.88;;;;;;;-1.06;100.00;100373.44;15296574;19;20413;-80
2023/02/14 08:27:03;;;;;;;12.10;9.95;;;;;;;-0.95;100.00;100384.63;15323974;19;20018;-76
2023/02/14 08:32:28;;;;;;;11.93;9.35;;;;;;;-0.83;100.00;100382.56;15292876;19;20028;-77
2023/02/14 08:37:57;;;;;;;12.18;9.95;;;;;;;-0.70;100.00;100373.38;15290193;19;20054;-74
2023/02/14 08:43:22;;;;;;;10.68;9.50;;;;;;;-0.57;100.00;100378.34;15288766;19;20018;-76
2023/02/14 08:48:52;;;;;;;11.80;9.27;;;;;;;-0.39;100.00;100392.88;15292879;19;20039;-77
2023/02/14 08:54:19;;;;;;;11.23;9.60;;;;;;;-0.25;100.00;100393.34;15292369;19;20351;-77
2023/02/14 08:59:44;;;;;;;10.15;8.68;;;;;;;-0.05;100.00;100397.19;15286075;19;20082;-74
2023/02/14 09:05:09;;;;;;;9.95;7.97;;;;;;;0.08;100.00;100397.69;15286445;19;20022;-76
2023/02/14 09:10:44;;;;;;;8.88;7.97;;;;;;;0.22;100.00;100400.78;15280439;19;20027;-76
2023/02/14 09:16:12;;;;;;;9.68;8.68;;;;;;;0.40;100.00;100401.16;15279609;19;20018;-75
2023/02/14 09:21:37;;;;;;;9.32;8.13;;;;;;;0.58;100.00;100391.75;15282679;19;20011;-76
2023/02/14 09:27:06;;;;;;;9.85;8.82;;;;;;;0.72;100.00;100405.44;15283683;19;20040;-77
2023/02/14 09:32:30;;;;;;;9.55;8.40;;;;;;;0.97;100.00;100404.63;15280279;19;20018;-76
2023/02/14 09:43:43;;;;;;;9.23;8.32;;;;;;;1.40;100.00;100399.63;15280337;19;20053;-77
2023/02/14 09:49:14;;;;;;;8.88;7.97;;;;;;;1.60;100.00;100387.41;15277461;19;20047;-77
2023/02/14 09:54:43;;;;;;;6.97;6.28;;;;;;;1.77;100.00;100376.16;15262751;19;20021;-77
2023/02/14 10:00:22;;;;;;;7.38;6.63;;;;;;;1.98;100.00;100366.53;15277236;19;20016;-77
2023/02/14 10:05:52;;;;;;;7.38;6.68;;;;;;;2.15;100.00;100352.59;15282100;19;20010;-77
2023/02/14 10:11:23;;;;;;;6.75;6.05;;;;;;;2.32;100.00;100351.91;15280587;19;20021;-85
2023/02/14 10:16:55;;;;;;;6.90;6.25;;;;;;;2.62;100.00;100336.50;15283616;19;20046;-86
2023/02/14 10:22:24;;;;;;;6.38;5.78;;;;;;;2.79;100.00;100321.66;15284183;19;20086;-84
2023/02/14 10:27:52;;;;;;;7.20;5.80;;;;;;;2.93;100.00;100295.31;15281572;19;20015;-85
2023/02/14 10:33:21;;;;;;;6.43;5.82;;;;;;;3.07;100.00;100280.50;15285269;19;20011;-85
2023/02/14 10:38:55;;;;;;;6.22;5.63;;;;;;;3.31;100.00;100281.22;15276905;19;20350;-84
2023/02/14 11:32:51;;;;;;;;;;;;;;;;;;;;;
2023/02/14 11:38:29;;;;;;;5.47;4.70;;;;;;;5.77;100.00;100203.06;15265063;19;20010;-53
2023/02/14 11:43:54;;;;;;;4.70;4.30;;;;;;;6.01;100.00;100182.13;15269888;19;21030;-52
2023/02/14 11:49:29;;;;;;;4.97;4.47;;;;;;;6.22;100.00;100193.41;15265200;19;20015;-52
2023/02/14 11:54:57;;;;;;;4.22;3.83;;;;;;;6.58;100.00;100177.91;15269478;19;20047;-56
2023/02/14 12:00:25;;;;;;;5.95;5.05;;;;;;;6.84;100.00;100181.66;15280307;19;20031;-52
2023/02/14 12:05:59;;;;;;;5.50;5.00;;;;;;;7.02;100.00;100173.47;15282565;19;20015;-54
2023/02/14 12:11:28;;;;;;;4.70;4.30;;;;;;;7.08;100.00;100160.56;15281160;19;20021;-54
2023/02/14 12:17:03;;;;;;;5.38;4.50;;;;;;;7.12;100.00;100150.50;15280071;19;20430;-50
2023/02/14 12:22:33;;;;;;;4.60;4.10;;;;;;;7.18;100.00;100136.69;15280729;19;20027;-53
2023/02/14 12:28:06;;;;;;;4.90;4.40;;;;;;;7.25;100.00;100130.00;15274874;19;20018;-52
2023/02/14 12:33:31;;;;;;;4.40;4.00;;;;;;;7.35;100.00;100122.19;15281291;19;20630;-51
2023/02/14 12:39:16;;;;;;;6.38;4.40;;;;;;;7.51;100.00;100103.31;15277439;19;20018;-54
2023/02/14 12:44:53;;;;;;;4.20;3.80;;;;;;;7.69;100.00;100103.94;15283494;19;20027;-53
2023/02/14 12:50:36;;;;;;;4.45;4.05;;;;;;;7.88;100.00;100086.59;15278470;19;20010;-50
2023/02/14 12:56:12;;;;;;;5.18;3.63;;;;;;;8.07;100.00;100080.84;15279114;19;20678;-52
2023/02/14 13:02:23;;;;;;;4.28;3.70;;;;;;;8.35;100.00;100073.56;15274774;19;20021;-51
2023/02/14 13:08:01;;;;;;;3.63;3.30;;;;;;;8.61;100.00;100079.00;15278989;19;20070;-53
2023/02/14 13:13:33;;;;;;;4.68;3.47;;;;;;;8.87;100.00;100071.78;15278002;19;20017;-51
2023/02/14 13:19:07;;;;;;;3.30;3.10;;;;;;;9.06;100.00;100062.38;15276797;19;20010;-50
2023/02/14 13:24:35;;;;;;;3.40;3.10;;;;;;;9.35;100.00;100044.13;15277026;19;20010;-53
2023/02/14 13:30:05;;;;;;;4.20;3.28;;;;;;;9.71;100.00;100042.34;15275863;19;20333;-49
2023/02/14 13:35:36;;;;;;;3.33;3.00;;;;;;;10.20;100.00;100030.63;15276523;19;20382;-50
2023/02/14 13:41:04;;;;;;;3.30;3.00;;;;;;;10.44;100.00;100028.72;15274517;19;20098;-50
2023/02/14 13:46:53;;;;;;;3.22;2.92;;;;;;;10.91;100.00;100025.06;15277157;19;20025;-50
2023/02/14 13:52:47;;;;;;;3.05;2.75;;;;;;;11.19;100.00;100018.28;15275130;19;20017;-51
2023/02/14 13:58:14;;;;;;;3.20;2.90;;;;;;;11.54;100.00;100011.78;15272285;19;20016;-49
2023/02/14 14:03:59;;;;;;;3.90;2.72;;;;;;;11.65;100.00;100007.34;15270247;19;20014;-50
2023/02/14 14:10:10;;;;;;;3.55;2.30;;;;;;;11.88;100.00;100002.69;15274207;19;20014;-53
2023/02/14 14:15:35;;;;;;;2.90;2.40;;;;;;;11.99;100.00;100001.81;15275508;19;20025;-50
2023/02/14 14:20:59;;;;;;;1.88;1.77;;;;;;;12.16;100.00;99993.09;15273024;19;20027;-50
2023/02/14 14:26:38;;;;;;;2.88;2.08;;;;;;;12.34;100.00;99981.69;15272681;19;20521;-48
2023/02/14 14:32:02;;;;;;;2.85;2.40;;;;;;;12.46;100.00;99985.16;15266281;19;20895;-48
2023/02/14 14:37:29;;;;;;;2.63;2.30;;;;;;;12.42;100.00;99983.69;15262210;19;20024;-48
2023/02/14 14:42:56;;;;;;;2.28;2.08;;;;;;;12.49;100.00;99984.91;15272581;19;20043;-48
2023/02/14 14:48:28;;;;;;;2.22;2.10;;;;;;;12.55;100.00;99983.50;15271347;19;20018;-51
2023/02/14 14:53:55;;;;;;;3.15;2.20;;;;;;;12.62;100.00;99972.00;15271922;19;20027;-53
2023/02/14 14:59:33;;;;;;;2.33;2.13;;;;;;;12.60;100.00;99965.00;15271323;19;20026;-50
2023/02/14 15:04:58;;;;;;;2.50;2.30;;;;;;;12.55;100.00;99956.47;15269723;19;20014;-50
2023/02/14 15:10:25;;;;;;;2.42;2.22;;;;;;;12.45;100.00;99961.81;15261408;19;20014;-53
2023/02/14 15:15:56;;;;;;;2.38;2.20;;;;;;;12.35;100.00;99950.09;15266622;19;20062;-53
2023/02/14 15:21:21;;;;;;;2.70;2.50;;;;;;;12.26;100.00;99946.38;15265431;19;20094;-49
2023/02/14 15:26:47;;;;;;;2.53;2.28;;;;;;;12.18;100.00;99939.78;15271017;19;20035;-53
2023/02/14 15:32:15;;;;;;;2.35;2.15;;;;;;;11.94;100.00;99945.44;15283842;19;20007;-51
2023/02/14 15:37:41;;;;;;;2.50;2.30;;;;;;;11.81;100.00;99934.00;15281064;19;20581;-54
2023/02/14 15:43:17;;;;;;;2.85;2.63;;;;;;;11.39;100.00;99926.75;15280462;19;20022;-52
2023/02/14 15:48:48;;;;;;;4.55;3.60;;;;;;;11.10;100.00;99930.91;15282061;19;20516;-50
2023/02/14 15:54:22;;;;;;;4.53;3.63;;;;;;;10.83;100.00;99931.31;15281927;19;20014;-48
2023/02/14 15:59:50;;;;;;;6.05;3.20;;;;;;;10.60;100.00;99931.34;15280338;19;20659;-51
2023/02/14 16:05:27;;;;;;;3.83;3.00;;;;;;;10.27;100.00;99932.19;15282627;19;20031;-53
2023/02/14 16:11:08;;;;;;;3.58;3.28;;;;;;;9.93;100.00;99926.78;15282676;19;20021;-52
2023/02/14 16:16:58;;;;;;;3.30;3.00;;;;;;;9.56;100.00;99919.72;15277329;19;20015;-51
2023/02/14 16:22:36;;;;;;;3.40;3.10;;;;;;;9.25;100.00;99928.28;15278171;19;20017;-49
2023/02/14 16:28:01;;;;;;;3.55;3.25;;;;;;;8.97;100.00;99934.03;15277234;19;20101;-51
2023/02/14 16:33:28;;;;;;;3.88;3.50;;;;;;;8.71;100.00;99931.41;15281763;19;20082;-48
2023/02/14 16:39:03;;;;;;;4.53;3.42;;;;;;;8.43;100.00;99938.75;15274619;19;20675;-53
2023/02/14 16:44:29;;;;;;;4.80;3.63;;;;;;;8.21;100.00;99940.28;15277135;19;20010;-51
2023/02/14 16:49:56;;;;;;;4.88;3.60;;;;;;;8.02;100.00;99949.66;15277839;19;20468;-54
2023/02/14 16:55:27;;;;;;;4.28;3.88;;;;;;;7.90;100.00;99955.00;15281911;19;20014;-51
2023/02/14 17:00:52;;;;;;;6.03;4.00;;;;;;;7.71;100.00;99957.13;15278797;19;20010;-48
2023/02/14 17:06:23;;;;;;;5.05;4.40;;;;;;;7.59;100.00;99952.59;15279748;19;20053;-52
2023/02/14 17:11:53;;;;;;;5.10;4.60;;;;;;;7.39;100.00;99946.75;15278468;19;20509;-53
2023/02/14 17:17:19;;;;;;;4.90;4.40;;;;;;;7.25;100.00;99944.13;15275687;19;20524;-51
2023/02/14 17:22:44;;;;;;;4.85;4.45;;;;;;;7.13;100.00;99950.31;15282745;19;20017;-50
2023/02/14 17:28:12;;;;;;;4.95;4.45;;;;;;;6.99;100.00;99959.28;15278070;19;20078;-51
2023/02/14 17:33:37;;;;;;;5.82;4.75;;;;;;;6.84;100.00;99956.63;15279841;19;20098;-49
2023/02/14 17:39:02;;;;;;;5.88;4.43;;;;;;;6.71;100.00;99961.03;15275595;19;20019;-54
2023/02/14 17:44:34;;;;;;;5.15;4.65;;;;;;;6.63;100.00;99972.28;15277536;19;20014;-50
2023/02/14 17:49:59;;;;;;;6.47;4.50;;;;;;;6.52;100.00;99966.75;15270158;19;20476;-51
2023/02/14 17:55:23;;;;;;;5.82;4.85;;;;;;;6.40;100.00;99966.56;15275395;19;20602;-50
2023/02/14 18:00:51;;;;;;;5.55;5.05;;;;;;;6.29;100.00;99966.38;15274250;19;20074;-54
2023/02/14 18:06:18;;;;;;;6.75;5.53;;;;;;;6.17;100.00;99957.28;15274524;19;20019;-53
2023/02/14 18:11:44;;;;;;;6.45;5.78;;;;;;;6.04;100.00;99949.16;15277808;19;20018;-50
2023/02/14 18:17:11;;;;;;;6.45;5.75;;;;;;;5.93;100.00;99954.28;15274146;19;20018;-50
2023/02/14 18:22:36;;;;;;;6.70;6.05;;;;;;;5.84;100.00;99947.66;15268949;19;20221;-52
2023/02/14 18:28:00;;;;;;;9.52;6.30;;;;;;;5.75;100.00;99951.75;15270324;19;20089;-52
2023/02/14 18:33:28;;;;;;;7.28;6.57;;;;;;;5.69;100.00;99950.31;14761918;19;10000493;-54
2023/02/14 18:38:55;;;;;;;7.60;6.45;;;;;;;5.60;100.00;99950.00;15272129;19;20022;-54
2023/02/14 18:44:20;;;;;;;7.40;6.70;;;;;;;5.54;100.00;99948.53;15275798;19;20029;-50
2023/02/14 18:49:47;;;;;;;7.53;6.82;;;;;;;5.49;100.00;99943.47;15268258;19;20018;-52
2023/02/14 18:55:12;;;;;;;8.05;7.25;;;;;;;5.42;100.00;99938.56;15269346;19;20022;-52
2023/02/14 19:00:37;;;;;;;7.97;7.18;;;;;;;5.36;100.00;99929.09;15271463;19;20010;-53
2023/02/14 19:06:05;;;;;;;8.25;7.32;;;;;;;5.32;100.00;99924.91;15292532;19;20014;-57
2023/02/14 19:11:32;;;;;;;8.10;7.30;;;;;;;5.29;100.00;99922.41;15298359;19;20025;-53
2023/02/14 19:16:57;;;;;;;8.35;7.55;;;;;;;5.23;100.00;99918.28;15301488;19;20020;-53
2023/02/14 19:22:24;;;;;;;9.88;7.68;;;;;;;5.19;100.00;99914.06;15299769;19;20011;-51
2023/02/14 19:27:49;;;;;;;7.70;6.97;;;;;;;5.14;100.00;99908.16;15299076;19;20389;-55
2023/02/14 19:33:13;;;;;;;10.65;8.10;;;;;;;5.09;100.00;99911.09;15302633;19;20020;-54
2023/02/14 19:38:47;;;;;;;8.55;7.53;;;;;;;5.05;100.00;99902.41;15295302;19;20802;-51
2023/02/14 19:44:15;;;;;;;8.77;7.80;;;;;;;5.02;100.00;99901.69;15303579;19;20009;-54
2023/02/14 19:49:42;;;;;;;9.90;8.50;;;;;;;4.99;100.00;99892.06;15296950;19;20015;-53
2023/02/14 19:55:18;;;;;;;9.63;8.57;;;;;;;4.97;100.00;99898.44;15301350;19;20341;-53
2023/02/14 20:00:42;;;;;;;9.48;7.85;;;;;;;4.91;100.00;99889.84;15294787;19;19998;-53
2023/02/14 20:06:07;;;;;;;10.30;8.90;;;;;;;4.89;100.00;99894.41;15297463;19;20029;-54
2023/02/14 20:11:40;;;;;;;9.75;8.75;;;;;;;4.87;100.00;99887.44;15298766;19;20078;-55
2023/02/14 20:17:07;;;;;;;9.30;8.25;;;;;;;4.89;100.00;99889.06;15282256;19;20030;-54
2023/02/14 20:22:31;;;;;;;9.77;8.60;;;;;;;4.91;100.00;99891.66;15279378;19;20137;-53
2023/02/14 20:27:59;;;;;;;9.48;8.15;;;;;;;4.86;100.00;99878.56;15281809;19;20020;-53
2023/02/14 20:33:23;;;;;;;10.00;8.15;;;;;;;4.83;100.00;99876.06;15279162;19;20468;-53
2023/02/14 20:38:48;;;;;;;11.45;8.93;;;;;;;4.78;100.00;99875.47;15277777;19;20461;-50
2023/02/14 20:44:18;;;;;;;8.52;7.63;;;;;;;4.73;100.00;99864.19;15282039;19;20014;-54
2023/02/14 20:49:43;;;;;;;11.23;8.70;;;;;;;4.65;100.00;99869.09;15279355;19;20100;-55
2023/02/14 20:55:07;;;;;;;11.95;8.98;;;;;;;4.61;100.00;99873.75;15277323;19;20015;-51
2023/02/14 21:00:35;;;;;;;8.85;7.95;;;;;;;4.56;100.00;99875.84;15279489;19;20019;-55
2023/02/14 21:05:59;;;;;;;9.88;8.57;;;;;;;4.47;100.00;99861.22;15274122;19;20086;-55
2023/02/14 21:11:26;;;;;;;15.65;12.07;;;;;;;4.39;100.00;99863.47;15279763;19;20030;-53
2023/02/14 21:16:53;;;;;;;272.98;116.45;;;;;;;4.34;100.00;99868.19;15276153;19;20048;-53
2023/02/14 21:22:18;;;;;;;13.48;10.40;;;;;;;4.24;100.00;99860.69;15277305;19;20102;-52
2023/02/14 21:27:42;;;;;;;12.00;8.95;;;;;;;4.17;100.00;99851.31;15272300;19;20033;-50
2023/02/14 21:33:14;;;;;;;10.98;8.50;;;;;;;4.09;100.00;99850.84;15280999;19;20040;-52
2023/02/14 21:38:38;;;;;;;11.98;9.23;;;;;;;3.92;100.00;99841.13;15270118;19;20039;-52
2023/02/14 21:44:04;;;;;;;11.40;9.82;;;;;;;3.88;100.00;99845.75;15276261;19;20081;-52
2023/02/14 21:55:10;;;;;;;12.10;9.48;;;;;;;3.87;100.00;99861.84;15274959;19;20358;-50
2023/02/14 22:00:33;;;;;;;10.23;8.90;;;;;;;3.87;100.00;99856.53;15275205;19;20022;-50
2023/02/14 22:06:06;;;;;;;9.13;7.97;;;;;;;3.88;100.00;99852.91;15274492;19;20014;-54
2023/02/14 22:11:32;;;;;;;10.02;8.13;;;;;;;3.85;100.00;99848.59;15276071;19;20022;-53
2023/02/14 22:16:58;;;;;;;8.73;7.57;;;;;;;3.81;100.00;99847.91;15274414;19;20014;-54
2023/02/14 22:22:25;;;;;;;9.85;7.43;;;;;;;3.72;100.00;99842.19;15270928;19;20082;-49
2023/02/14 22:27:50;;;;;;;8.68;7.45;;;;;;;3.67;100.00;99838.00;15275439;19;20078;-52
2023/02/14 22:33:14;;;;;;;11.32;7.65;;;;;;;3.63;100.00;99847.09;15274788;19;20525;-55
2023/02/14 22:38:42;;;;;;;8.80;7.90;;;;;;;3.58;100.00;99850.94;15266820;19;20486;-58
2023/02/14 22:44:06;;;;;;;8.93;7.93;;;;;;;3.54;100.00;99842.25;15274220;19;20540;-54
2023/02/14 22:49:31;;;;;;;10.55;8.75;;;;;;;3.46;100.00;99839.97;15269916;19;20022;-54
2023/02/14 22:54:59;;;;;;;9.15;8.02;;;;;;;3.39;100.00;99834.13;15272269;19;20037;-56
2023/02/14 23:00:25;;;;;;;9.32;7.90;;;;;;;3.28;100.00;99839.16;15269164;19;20047;-53
2023/02/14 23:05:49;;;;;;;9.90;7.55;;;;;;;3.19;100.00;99823.66;15268586;19;20015;-54
2023/02/14 23:11:19;;;;;;;8.68;7.22;;;;;;;3.08;100.00;99825.06;15268059;19;20482;-54
2023/02/14 23:22:23;;;;;;;9.02;7.63;;;;;;;2.93;100.00;99824.06;15266411;19;20509;-51
2023/02/14 23:27:52;;;;;;;7.75;6.70;;;;;;;2.86;100.00;99805.81;15269090;19;20399;-53
2023/02/14 23:33:17;;;;;;;7.82;6.20;;;;;;;2.80;100.00;99816.75;15270449;19;20023;-50
2023/02/14 23:38:48;;;;;;;8.77;6.30;;;;;;;2.70;100.00;99805.72;15269219;19;20472;-55
2023/02/14 23:44:17;;;;;;;7.77;6.67;;;;;;;2.59;100.00;99808.91;15264335;19;20029;-54
2023/02/14 23:49:44;;;;;;;8.43;7.05;;;;;;;2.50;100.00;99799.56;15270531;19;20353;-50
2023/02/14 23:55:10;;;;;;;7.70;6.90;;;;;;;2.37;100.00;99791.34;15286076;19;20014;-55
